Time;durP1;ratioP1;P1;durP2;ratioP2;P2;SDS_P1;SDS_P2;PMS_P1;PMS_P2;Temp;Humidity;BMP_temperature;BMP_pressure;BME280_temperature;BME280_humidity;BME280_pressure;Samples;Min_cycle;Max_cycle;Signal;HPM_P1;HPM_P2
2023/04/28 00:02:06;;;;;;;11.43;8.63;;;9.10;99.90;;;;;;5021072;28;36848;-78
2023/04/28 00:04:33;;;;;;;12.63;8.60;;;9.10;99.90;;;;;;5025491;28;37848;-77
2023/04/28 00:06:59;;;;;;;14.47;9.17;;;9.10;99.90;;;;;;5019398;28;37126;-77
2023/04/28 00:09:25;;;;;;;13.17;8.80;;;9.10;99.90;;;;;;5021925;28;36814;-78
2023/04/28 00:11:51;;;;;;;13.87;9.17;;;9.10;99.90;;;;;;5026016;28;36957;-76
2023/04/28 00:14:17;;;;;;;13.70;8.87;;;9.20;99.90;;;;;;5013408;28;37729;-77
2023/04/28 00:16:43;;;;;;;15.43;9.93;;;9.10;99.90;;;;;;5020182;28;38246;-77
2023/04/28 00:19:09;;;;;;;13.13;8.87;;;9.20;99.90;;;;;;5022734;28;38892;-76
2023/04/28 00:21:35;;;;;;;12.33;8.77;;;9.10;99.90;;;;;;5039464;28;36081;-77
2023/04/28 00:24:01;;;;;;;13.03;9.07;;;9.20;99.90;;;;;;5026585;28;37475;-76
2023/04/28 00:26:27;;;;;;;11.70;8.33;;;9.20;99.90;;;;;;5036916;28;37610;-77
2023/04/28 00:28:54;;;;;;;13.70;9.13;;;9.20;99.90;;;;;;5026274;28;36957;-78
2023/04/28 00:31:20;;;;;;;10.23;8.20;;;9.30;99.90;;;;;;5027338;28;36667;-78
2023/04/28 00:33:46;;;;;;;14.70;8.73;;;9.30;99.90;;;;;;5027035;28;38902;-78
2023/04/28 00:36:12;;;;;;;12.60;7.87;;;9.40;99.90;;;;;;5042292;28;37678;-78
2023/04/28 00:38:38;;;;;;;17.67;8.23;;;9.40;99.90;;;;;;5023415;28;36986;-78
2023/04/28 00:41:04;;;;;;;12.17;7.80;;;9.40;99.90;;;;;;5026045;28;36649;-78
2023/04/28 00:43:31;;;;;;;13.33;9.30;;;9.40;99.90;;;;;;5026334;28;38853;-77
2023/04/28 00:45:57;;;;;;;10.90;8.17;;;9.40;99.90;;;;;;5028250;28;39456;-76
2023/04/28 00:48:28;;;;;;;11.53;8.30;;;9.50;99.90;;;;;;5020617;28;35833;-76
2023/04/28 00:50:54;;;;;;;14.87;7.80;;;9.50;99.90;;;;;;5019616;28;38249;-77
2023/04/28 00:53:22;;;;;;;11.97;8.07;;;9.50;99.90;;;;;;5031259;28;39835;-76
2023/04/28 00:55:51;;;;;;;10.37;7.40;;;9.50;99.90;;;;;;5024432;28;39378;-77
2023/04/28 00:58:18;;;;;;;14.13;7.30;;;9.50;99.90;;;;;;5038253;28;37205;-77
2023/04/28 01:03:20;;;;;;;13.43;8.03;;;9.60;99.90;;;;;;5234305;22;20169;-76
2023/04/28 01:05:47;;;;;;;11.98;8.23;;;9.60;99.90;;;;;;5056055;28;38089;-77
2023/04/28 01:08:13;;;;;;;12.60;8.23;;;9.60;99.90;;;;;;5057081;28;36997;-77
2023/04/28 01:10:43;;;;;;;10.48;8.30;;;9.60;99.90;;;;;;5062752;28;37317;-77
2023/04/28 01:13:10;;;;;;;14.80;7.83;;;9.60;99.90;;;;;;5064458;28;38006;-78
2023/04/28 01:15:36;;;;;;;10.95;7.95;;;9.60;99.90;;;;;;5065705;28;38711;-76
2023/04/28 01:18:02;;;;;;;13.23;8.20;;;9.60;99.90;;;;;;5065797;28;38300;-76
2023/04/28 01:20:31;;;;;;;11.07;7.53;;;9.60;99.90;;;;;;5065010;28;37015;-77
2023/04/28 01:22:57;;;;;;;12.02;8.18;;;9.60;99.90;;;;;;5062909;28;38362;-78
2023/04/28 01:25:23;;;;;;;13.85;7.97;;;9.60;99.90;;;;;;5067908;28;40064;-78
2023/04/28 01:27:51;;;;;;;13.00;8.13;;;9.60;99.90;;;;;;5068046;28;38155;-77
2023/04/28 01:30:17;;;;;;;10.38;8.07;;;9.60;99.90;;;;;;5062268;28;37224;-78
2023/04/28 01:32:43;;;;;;;11.60;7.55;;;9.70;99.90;;;;;;5071702;28;38303;-76
2023/04/28 01:35:09;;;;;;;13.32;8.52;;;9.70;99.90;;;;;;5070349;28;37221;-76
2023/04/28 01:37:35;;;;;;;11.57;8.40;;;9.60;99.90;;;;;;5066890;28;37288;-77
2023/04/28 01:40:01;;;;;;;12.18;8.50;;;9.60;99.90;;;;;;5071983;28;36783;-77
2023/04/28 01:42:33;;;;;;;15.77;8.52;;;9.70;99.90;;;;;;5069995;28;38636;-77
2023/04/28 01:45:00;;;;;;;13.30;8.80;;;9.60;99.90;;;;;;5070036;28;39275;-77
2023/04/28 01:47:26;;;;;;;9.93;7.88;;;9.70;99.90;;;;;;5070758;28;38303;-76
2023/04/28 01:49:52;;;;;;;13.13;8.50;;;9.60;99.90;;;;;;5073696;28;37372;-76
2023/04/28 01:52:21;;;;;;;14.75;8.10;;;9.60;99.90;;;;;;5066425;28;37309;-78
2023/04/28 01:54:47;;;;;;;13.20;8.80;;;9.60;99.90;;;;;;5088989;28;38112;-77
2023/04/28 01:57:13;;;;;;;10.57;8.50;;;9.60;99.90;;;;;;5062747;28;37922;-78
2023/04/28 01:59:39;;;;;;;11.80;8.88;;;9.60;99.90;;;;;;5066429;28;37376;-77
2023/04/28 02:02:05;;;;;;;13.77;7.95;;;9.60;99.90;;;;;;5064553;28;39445;-77
2023/04/28 02:04:31;;;;;;;16.20;8.32;;;9.60;99.90;;;;;;5064497;28;39892;-77
2023/04/28 02:06:57;;;;;;;15.77;9.15;;;9.60;99.90;;;;;;5068526;28;38499;-77
2023/04/28 02:09:24;;;;;;;12.40;7.95;;;9.60;99.90;;;;;;5063602;28;38427;-77
2023/04/28 02:11:50;;;;;;;10.27;8.07;;;9.60;99.90;;;;;;5069441;28;37756;-77
2023/04/28 02:14:16;;;;;;;12.15;8.18;;;9.60;99.90;;;;;;5061567;28;37338;-77
2023/04/28 02:16:42;;;;;;;14.57;8.25;;;9.60;99.90;;;;;;5061923;28;37837;-77
2023/04/28 02:19:08;;;;;;;12.60;8.77;;;9.60;99.90;;;;;;5065863;28;37963;-76
2023/04/28 02:21:34;;;;;;;13.25;8.90;;;9.60;99.90;;;;;;5065116;28;37979;-77
2023/04/28 02:24:00;;;;;;;13.53;8.40;;;9.60;99.90;;;;;;5060225;28;37675;-77
2023/04/28 02:26:29;;;;;;;11.23;8.20;;;9.50;99.90;;;;;;5070115;28;46787;-77
2023/04/28 02:28:55;;;;;;;13.47;8.63;;;9.40;99.90;;;;;;5053014;28;37116;-77
2023/04/28 02:31:21;;;;;;;15.27;8.63;;;9.40;99.90;;;;;;5064460;28;37598;-77
2023/04/28 02:33:47;;;;;;;14.52;9.68;;;9.30;99.90;;;;;;5059200;28;37559;-77
2023/04/28 02:36:13;;;;;;;12.55;9.13;;;9.30;99.90;;;;;;5056165;28;37663;-77
2023/04/28 02:38:40;;;;;;;12.03;8.43;;;9.20;99.90;;;;;;5062318;28;35852;-77
2023/04/28 02:41:08;;;;;;;12.07;8.50;;;9.30;99.90;;;;;;5062575;28;39118;-77
2023/04/28 02:43:35;;;;;;;13.02;8.75;;;9.30;99.90;;;;;;5063215;28;39035;-77
2023/04/28 02:46:04;;;;;;;13.23;8.93;;;9.30;99.90;;;;;;5066091;28;38610;-77
2023/04/28 02:48:31;;;;;;;12.85;8.52;;;9.30;99.90;;;;;;5064725;28;48888;-77
2023/04/28 02:50:57;;;;;;;10.20;8.30;;;9.40;99.90;;;;;;5065049;28;37770;-77
2023/04/28 02:53:24;;;;;;;10.57;8.43;;;9.40;99.90;;;;;;5063233;28;39988;-77
2023/04/28 02:55:50;;;;;;;12.82;8.75;;;9.40;99.90;;;;;;5061865;28;37872;-77
2023/04/28 02:58:16;;;;;;;12.57;9.27;;;9.40;99.90;;;;;;5061273;28;36376;-77
2023/04/28 03:00:43;;;;;;;14.82;8.93;;;9.40;99.90;;;;;;5063547;28;38662;-77
2023/04/28 03:03:09;;;;;;;11.60;8.95;;;9.40;99.90;;;;;;5061082;28;38114;-77
2023/04/28 03:05:35;;;;;;;13.00;9.30;;;9.50;99.90;;;;;;5064525;28;38278;-77
2023/04/28 03:08:01;;;;;;;18.17;9.45;;;9.40;99.90;;;;;;5067475;28;37331;-77
2023/04/28 03:10:27;;;;;;;11.73;8.60;;;9.50;99.90;;;;;;5066263;28;48572;-77
2023/04/28 03:12:53;;;;;;;15.45;9.35;;;9.50;99.90;;;;;;5063170;28;37187;-77
2023/04/28 03:15:19;;;;;;;15.18;8.82;;;9.60;99.90;;;;;;5061883;28;38771;-77
2023/04/28 03:17:45;;;;;;;13.80;9.05;;;9.50;99.90;;;;;;5062456;28;37091;-77
2023/04/28 03:20:12;;;;;;;14.13;8.87;;;9.50;99.90;;;;;;5065077;28;38615;-77
2023/04/28 03:22:38;;;;;;;11.50;8.98;;;9.50;99.90;;;;;;5058858;28;38597;-77
2023/04/28 03:25:04;;;;;;;15.68;9.40;;;9.50;99.90;;;;;;5062571;28;37516;-78
2023/04/28 03:27:30;;;;;;;12.52;8.82;;;9.60;99.90;;;;;;5062901;28;38256;-77
2023/04/28 03:29:56;;;;;;;11.00;8.90;;;9.60;99.90;;;;;;5062641;28;37598;-77
2023/04/28 03:32:22;;;;;;;12.90;9.18;;;9.60;99.90;;;;;;5068551;28;38349;-77
2023/04/28 03:34:48;;;;;;;13.57;9.20;;;9.50;99.90;;;;;;5062134;28;38903;-76
2023/04/28 03:37:15;;;;;;;13.30;9.23;;;9.60;99.90;;;;;;5062891;28;38096;-77
2023/04/28 03:39:41;;;;;;;12.60;9.63;;;9.60;99.90;;;;;;5062131;28;38760;-77
2023/04/28 03:42:07;;;;;;;15.35;9.88;;;9.50;99.90;;;;;;5063955;28;38059;-77
2023/04/28 03:44:33;;;;;;;14.65;9.18;;;9.60;99.90;;;;;;5061513;28;37734;-78
2023/04/28 03:47:00;;;;;;;15.13;9.70;;;9.50;99.90;;;;;;5065480;28;37896;-77
2023/04/28 03:49:26;;;;;;;13.93;9.85;;;9.50;99.90;;;;;;5062429;28;39107;-78
2023/04/28 03:51:52;;;;;;;16.45;10.38;;;9.60;99.90;;;;;;5064729;28;37319;-77
2023/04/28 03:54:18;;;;;;;13.38;9.68;;;9.50;99.90;;;;;;5073318;28;38780;-76
2023/04/28 03:56:45;;;;;;;12.45;9.40;;;9.50;99.90;;;;;;5062482;28;38582;-78
2023/04/28 03:59:11;;;;;;;13.07;9.57;;;9.50;99.90;;;;;;5060849;28;39501;-77
2023/04/28 04:01:38;;;;;;;16.95;10.60;;;9.60;99.90;;;;;;5065431;28;37969;-77
2023/04/28 04:04:04;;;;;;;16.67;10.40;;;9.60;99.90;;;;;;5060251;28;37040;-75
2023/04/28 04:06:31;;;;;;;15.75;10.13;;;9.60;99.90;;;;;;5081028;28;37273;-77
2023/04/28 04:08:59;;;;;;;14.20;10.65;;;9.60;99.90;;;;;;5063016;28;20053;-75
2023/04/28 04:11:25;;;;;;;14.90;11.18;;;9.60;99.90;;;;;;5060424;28;38307;-75
2023/04/28 04:13:51;;;;;;;14.35;10.32;;;9.60;99.90;;;;;;5073340;28;38058;-76
2023/04/28 04:16:17;;;;;;;20.90;11.60;;;9.60;99.90;;;;;;5065624;28;37301;-78
2023/04/28 04:18:43;;;;;;;16.35;11.50;;;9.60;99.90;;;;;;5080486;28;38549;-77
2023/04/28 04:21:09;;;;;;;16.23;12.18;;;9.50;99.90;;;;;;5059755;28;38280;-77
2023/04/28 04:23:35;;;;;;;16.65;11.48;;;9.50;99.90;;;;;;5057423;28;37997;-77
2023/04/28 04:26:01;;;;;;;16.07;11.53;;;9.50;99.90;;;;;;5068645;28;36624;-77
2023/04/28 04:28:27;;;;;;;17.55;11.75;;;9.40;99.90;;;;;;5064559;28;38713;-77
2023/04/28 04:30:53;;;;;;;16.88;13.18;;;9.30;99.90;;;;;;5062744;28;39086;-77
2023/04/28 04:33:20;;;;;;;20.03;12.50;;;9.30;99.90;;;;;;5059123;28;38577;-77
2023/04/28 04:35:46;;;;;;;18.90;12.07;;;9.20;99.90;;;;;;5063370;28;38195;-77
2023/04/28 04:38:12;;;;;;;18.73;12.93;;;9.10;99.90;;;;;;5063313;28;37543;-77
2023/04/28 04:40:38;;;;;;;20.67;13.57;;;9.10;99.90;;;;;;5059466;28;36338;-77
2023/04/28 04:43:04;;;;;;;20.83;14.43;;;9.10;99.90;;;;;;5068047;28;37776;-77
2023/04/28 04:45:30;;;;;;;22.13;15.10;;;8.90;99.90;;;;;;5064584;28;36726;-78
2023/04/28 04:47:56;;;;;;;22.20;15.07;;;8.90;99.90;;;;;;5063718;28;38569;-77
2023/04/28 04:50:26;;;;;;;26.50;15.67;;;8.90;99.90;;;;;;5071235;28;39590;-77
2023/04/28 04:52:53;;;;;;;19.03;14.93;;;8.80;99.90;;;;;;5061019;28;38298;-78
2023/04/28 04:55:19;;;;;;;21.90;14.40;;;8.70;99.90;;;;;;5065471;28;37903;-78
2023/04/28 04:57:45;;;;;;;21.43;15.57;;;8.70;99.90;;;;;;5071123;28;38742;-78
2023/04/28 05:00:12;;;;;;;25.17;15.53;;;8.70;99.90;;;;;;5061463;28;37407;-77
2023/04/28 05:02:38;;;;;;;21.00;16.57;;;8.70;99.90;;;;;;5061004;28;38282;-76
2023/04/28 05:05:05;;;;;;;24.07;16.97;;;8.60;99.90;;;;;;5066375;28;37628;-76
2023/04/28 05:07:32;;;;;;;26.40;16.10;;;8.60;99.90;;;;;;5070971;28;47430;-76
2023/04/28 05:09:59;;;;;;;21.00;15.83;;;8.60;99.90;;;;;;5067514;28;39723;-78
2023/04/28 05:12:25;;;;;;;21.90;16.27;;;8.70;99.90;;;;;;5066431;28;37563;-78
2023/04/28 05:14:51;;;;;;;25.40;17.50;;;8.70;99.90;;;;;;5062966;28;38309;-78
2023/04/28 05:17:17;;;;;;;24.30;16.03;;;8.60;99.90;;;;;;5064331;28;39643;-78
2023/04/28 05:19:44;;;;;;;23.47;17.93;;;8.60;99.90;;;;;;5061429;28;38187;-79
2023/04/28 05:22:11;;;;;;;26.97;17.10;;;8.50;99.90;;;;;;5056783;28;37581;-78
2023/04/28 05:24:37;;;;;;;27.77;18.60;;;8.50;99.90;;;;;;5072454;28;38206;-77
2023/04/28 05:27:03;;;;;;;25.63;18.50;;;8.50;99.90;;;;;;5064999;28;37699;-77
2023/04/28 05:29:29;;;;;;;25.80;17.27;;;8.50;99.90;;;;;;5082677;28;37246;-78
2023/04/28 05:31:55;;;;;;;23.03;18.17;;;8.50;99.90;;;;;;5064911;28;38391;-77
2023/04/28 05:34:21;;;;;;;24.83;17.60;;;8.50;99.90;;;;;;5059836;28;37707;-77
2023/04/28 05:36:47;;;;;;;26.88;18.48;;;8.50;99.90;;;;;;5063069;28;37706;-77
2023/04/28 05:39:13;;;;;;;30.92;19.77;;;8.50;99.90;;;;;;5055771;28;37159;-78
2023/04/28 05:41:39;;;;;;;23.27;17.73;;;8.60;99.90;;;;;;5064994;28;38178;-76
2023/04/28 05:44:05;;;;;;;26.30;18.43;;;8.60;99.90;;;;;;5059984;28;37798;-77
2023/04/28 05:46:32;;;;;;;29.97;19.80;;;8.50;99.90;;;;;;5059846;28;39112;-78
2023/04/28 05:48:58;;;;;;;32.37;19.57;;;8.60;99.90;;;;;;5066611;28;37176;-76
2023/04/28 05:51:26;;;;;;;23.93;18.47;;;8.60;99.90;;;;;;5063785;28;39165;-77
2023/04/28 05:53:52;;;;;;;28.87;18.77;;;8.70;99.90;;;;;;5065330;28;36279;-77
2023/04/28 05:56:18;;;;;;;27.92;18.98;;;8.70;99.90;;;;;;5056971;28;38876;-78
2023/04/28 05:58:44;;;;;;;30.02;19.65;;;8.70;99.90;;;;;;5057603;28;39866;-78
2023/04/28 06:01:10;;;;;;;30.63;20.10;;;8.70;99.90;;;;;;5059063;28;37020;-80
2023/04/28 06:03:41;;;;;;;30.30;20.17;;;8.70;99.90;;;;;;5080932;28;38416;-81
2023/04/28 06:06:08;;;;;;;27.90;20.37;;;8.70;99.90;;;;;;5101130;28;38357;-79
2023/04/28 06:08:37;;;;;;;32.47;20.97;;;8.60;99.90;;;;;;5087880;28;36601;-81
2023/04/28 06:11:04;;;;;;;29.05;19.63;;;8.60;99.90;;;;;;5089821;28;36529;-81
2023/04/28 06:13:30;;;;;;;32.57;21.43;;;8.70;99.90;;;;;;5081250;28;37409;-81
2023/04/28 06:30:23;;;;;;;31.73;21.92;;;9.00;99.90;;;;;;5020266;27;20395;-77
2023/04/28 06:32:50;;;;;;;31.27;25.13;;;9.00;99.90;;;;;;5056308;28;37918;-75
2023/04/28 06:35:16;;;;;;;33.90;24.77;;;9.00;99.90;;;;;;5052963;28;36553;-79
2023/04/28 06:37:42;;;;;;;37.78;24.35;;;9.00;99.90;;;;;;5044046;28;38939;-80
2023/04/28 06:40:10;;;;;;;36.70;25.57;;;8.80;99.90;;;;;;5058125;28;38132;-79
2023/04/28 06:42:36;;;;;;;41.03;25.77;;;8.90;99.90;;;;;;5055060;28;37479;-79
2023/04/28 06:45:02;;;;;;;33.75;24.15;;;8.90;99.90;;;;;;5051883;28;37930;-79
2023/04/28 06:47:29;;;;;;;36.58;25.33;;;9.00;99.90;;;;;;5053751;28;39084;-80
2023/04/28 06:49:58;;;;;;;36.08;25.30;;;9.10;99.90;;;;;;5048795;28;37121;-80
2023/04/28 06:52:27;;;;;;;36.25;25.02;;;9.10;99.90;;;;;;5050398;28;38332;-80
2023/04/28 06:54:54;;;;;;;42.30;25.83;;;9.00;99.90;;;;;;5054478;28;36374;-81
2023/04/28 06:57:20;;;;;;;34.13;25.70;;;9.10;99.90;;;;;;5056349;28;38807;-81
2023/04/28 06:59:46;;;;;;;40.10;27.27;;;9.00;99.90;;;;;;5057146;28;37016;-81
2023/04/28 07:02:12;;;;;;;33.15;24.73;;;9.10;99.90;;;;;;5043201;28;37801;-81
2023/04/28 07:04:39;;;;;;;34.47;23.60;;;9.10;99.90;;;;;;5038192;28;37837;-80
2023/04/28 07:07:07;;;;;;;36.72;25.65;;;9.20;99.90;;;;;;5051203;28;37662;-79
2023/04/28 07:09:36;;;;;;;35.70;26.50;;;9.30;99.90;;;;;;5056105;28;38022;-79
2023/04/28 07:12:03;;;;;;;38.67;26.95;;;9.40;99.90;;;;;;5056028;28;37896;-80
2023/04/28 07:14:29;;;;;;;33.90;25.52;;;9.40;99.90;;;;;;5057507;28;37663;-83
2023/04/28 07:16:55;;;;;;;32.15;23.80;;;9.40;99.90;;;;;;5028980;28;39005;-84
2023/04/28 07:19:21;;;;;;;33.45;25.17;;;9.50;99.90;;;;;;5039163;28;38421;-82
2023/04/28 07:21:48;;;;;;;33.30;24.02;;;9.50;99.90;;;;;;5038343;28;37999;-82
2023/04/28 07:24:14;;;;;;;35.95;25.55;;;9.60;99.90;;;;;;5051743;28;37721;-81
2023/04/28 07:26:40;;;;;;;37.97;27.00;;;9.70;99.90;;;;;;5060544;28;38605;-81
2023/04/28 07:29:07;;;;;;;31.92;23.73;;;9.70;99.90;;;;;;5053373;28;38419;-81
2023/04/28 07:31:34;;;;;;;30.75;24.60;;;9.70;99.90;;;;;;5052426;28;36901;-82
2023/04/28 07:34:00;;;;;;;34.45;25.35;;;9.80;99.90;;;;;;5048259;28;36696;-78
2023/04/28 07:36:26;;;;;;;36.67;26.85;;;9.90;99.90;;;;;;5023494;28;37748;-79
2023/04/28 07:38:52;;;;;;;36.22;25.35;;;10.00;99.90;;;;;;5043011;28;39266;-79
2023/04/28 07:41:18;;;;;;;36.15;23.80;;;10.00;99.90;;;;;;5026870;28;37387;-78
2023/04/28 07:43:45;;;;;;;33.50;26.20;;;9.90;99.90;;;;;;5041191;28;37121;-78
2023/04/28 07:46:11;;;;;;;37.38;25.65;;;10.10;99.90;;;;;;5041019;28;38961;-76
2023/04/28 07:48:38;;;;;;;39.58;27.55;;;10.10;99.90;;;;;;5043375;28;39584;-81
2023/04/28 07:51:04;;;;;;;34.45;26.63;;;10.10;99.90;;;;;;5010869;28;36263;-80
2023/04/28 07:53:31;;;;;;;41.58;29.92;;;10.10;99.90;;;;;;5039443;28;38528;-81
2023/04/28 07:55:57;;;;;;;35.45;26.55;;;10.20;99.90;;;;;;5012703;28;37480;-79
2023/04/28 07:58:23;;;;;;;34.35;26.77;;;10.30;99.90;;;;;;5018527;28;37447;-78
2023/04/28 08:00:49;;;;;;;41.35;27.20;;;10.40;99.90;;;;;;5031082;28;38775;-78
2023/04/28 08:03:15;;;;;;;36.20;27.33;;;10.40;99.90;;;;;;5032123;28;36457;-78
2023/04/28 08:05:41;;;;;;;35.65;27.27;;;10.40;99.90;;;;;;5041775;28;40503;-78
2023/04/28 08:08:07;;;;;;;33.05;26.52;;;10.30;99.90;;;;;;5035857;28;37001;-78
2023/04/28 08:10:33;;;;;;;35.47;26.23;;;10.30;99.90;;;;;;5033400;28;37861;-77
2023/04/28 08:13:07;;;;;;;35.58;27.65;;;10.50;99.90;;;;;;5020528;28;36188;-79
2023/04/28 08:15:33;;;;;;;36.38;27.63;;;10.40;99.90;;;;;;5007940;28;49441;-77
2023/04/28 08:17:59;;;;;;;38.58;26.42;;;10.50;99.90;;;;;;5024601;28;38245;-76
2023/04/28 08:20:25;;;;;;;38.05;28.33;;;10.50;99.90;;;;;;5037767;28;37133;-77
2023/04/28 08:22:51;;;;;;;35.55;27.40;;;10.50;99.90;;;;;;5025690;28;36201;-78
2023/04/28 08:25:17;;;;;;;34.22;28.02;;;10.60;99.90;;;;;;5026254;28;36779;-78
2023/04/28 08:27:44;;;;;;;31.63;25.15;;;10.60;99.90;;;;;;5027310;28;35483;-75
2023/04/28 08:30:10;;;;;;;37.50;27.17;;;10.70;99.90;;;;;;5047087;28;36842;-77
2023/04/28 08:32:36;;;;;;;44.53;29.30;;;10.80;99.90;;;;;;5044946;28;37659;-78
2023/04/28 08:35:03;;;;;;;35.00;28.42;;;11.00;99.90;;;;;;5061329;28;38480;-81
2023/04/28 08:37:29;;;;;;;39.17;28.52;;;11.30;99.90;;;;;;5033066;28;47313;-78
2023/04/28 08:40:02;;;;;;;42.25;32.03;;;11.30;99.90;;;;;;5035379;28;38481;-77
2023/04/28 08:42:29;;;;;;;35.25;27.83;;;11.60;99.90;;;;;;5033997;28;36868;-76
2023/04/28 08:44:59;;;;;;;31.90;25.92;;;11.60;99.90;;;;;;5033901;28;39399;-76
2023/04/28 08:47:37;;;;;;;31.42;27.15;;;11.50;99.90;;;;;;5027130;28;38536;-77
2023/04/28 08:50:04;;;;;;;29.55;25.15;;;11.50;99.90;;;;;;5037480;28;38137;-76
2023/04/28 08:52:32;;;;;;;33.30;26.50;;;11.60;99.90;;;;;;5041019;28;47997;-77
2023/04/28 08:55:01;;;;;;;34.45;26.70;;;11.60;99.90;;;;;;5062544;28;39642;-78
2023/04/28 08:57:33;;;;;;;28.50;25.15;;;11.70;99.90;;;;;;5030113;28;40617;-78
2023/04/28 09:00:00;;;;;;;24.38;21.65;;;11.90;99.90;;;;;;5028302;28;38056;-79
2023/04/28 09:02:26;;;;;;;28.40;21.50;;;12.10;99.90;;;;;;5033236;28;36204;-79
2023/04/28 09:04:52;;;;;;;22.85;19.65;;;12.20;99.90;;;;;;5034169;28;39478;-77
2023/04/28 09:07:18;;;;;;;20.90;18.20;;;12.50;99.90;;;;;;5038247;28;37316;-76
2023/04/28 09:09:44;;;;;;;19.52;17.45;;;12.70;99.90;;;;;;5053244;28;37421;-78
2023/04/28 09:12:11;;;;;;;15.82;14.13;;;12.70;99.90;;;;;;5054771;28;36737;-78
2023/04/28 09:14:38;;;;;;;16.77;13.77;;;12.80;99.90;;;;;;5060223;28;38904;-77
2023/04/28 09:17:14;;;;;;;12.27;9.98;;;12.90;99.90;;;;;;5048430;28;38194;-78
2023/04/28 09:19:45;;;;;;;9.75;6.95;;;12.90;99.90;;;;;;5048660;28;37034;-76
2023/04/28 09:22:11;;;;;;;6.28;5.30;;;13.00;99.90;;;;;;5043211;28;36726;-76
2023/04/28 09:24:43;;;;;;;7.88;4.15;;;12.90;99.90;;;;;;5047703;28;37719;-75
2023/04/28 09:27:10;;;;;;;6.47;3.80;;;13.00;99.90;;;;;;5074703;28;37345;-74
2023/04/28 09:29:37;;;;;;;5.30;3.45;;;13.30;99.90;;;;;;5056547;28;36603;-73
2023/04/28 09:32:18;;;;;;;5.72;2.97;;;13.30;99.90;;;;;;5059378;28;37668;-73
2023/04/28 09:34:49;;;;;;;4.50;2.83;;;13.50;99.90;;;;;;5045307;28;38539;-73
2023/04/28 09:37:16;;;;;;;5.10;3.10;;;13.50;99.90;;;;;;5033872;28;37909;-76
2023/04/28 09:39:48;;;;;;;3.88;2.80;;;13.70;99.90;;;;;;5039894;28;37305;-77
2023/04/28 09:42:35;;;;;;;4.45;2.95;;;14.10;99.90;;;;;;5035342;28;36865;-76
2023/04/28 09:45:03;;;;;;;6.32;3.10;;;14.70;99.90;;;;;;5055367;28;38480;-77
2023/04/28 09:47:32;;;;;;;6.13;3.40;;;14.80;99.90;;;;;;5037152;28;38918;-76
2023/04/28 09:50:00;;;;;;;4.70;3.10;;;14.60;99.90;;;;;;5037151;28;37233;-78
2023/04/28 09:52:26;;;;;;;4.57;2.95;;;14.30;99.90;;;;;;5052469;28;37112;-77
2023/04/28 09:54:54;;;;;;;4.28;2.97;;;13.90;99.90;;;;;;5051515;28;37511;-75
2023/04/28 09:57:21;;;;;;;4.72;3.03;;;13.80;99.90;;;;;;5031937;28;38364;-77
2023/04/28 09:59:49;;;;;;;7.75;3.42;;;13.50;99.90;;;;;;5041555;28;37283;-76
2023/04/28 10:02:17;;;;;;;4.40;3.20;;;13.40;99.90;;;;;;5039104;28;35868;-76
2023/04/28 10:04:45;;;;;;;5.18;3.00;;;13.20;99.90;;;;;;5030947;28;37713;-75
2023/04/28 10:07:16;;;;;;;5.90;3.17;;;13.00;99.90;;;;;;5029412;28;36224;-75
2023/04/28 10:09:52;;;;;;;9.48;3.53;;;13.00;99.90;;;;;;5048198;28;37859;-76
2023/04/28 10:12:22;;;;;;;4.45;2.55;;;13.00;99.90;;;;;;5053802;28;38031;-76
2023/04/28 10:14:53;;;;;;;5.22;2.65;;;13.00;99.90;;;;;;5060200;28;38611;-77
2023/04/28 10:17:20;;;;;;;3.85;2.38;;;13.10;99.90;;;;;;5061756;28;38923;-77
2023/04/28 10:19:51;;;;;;;3.35;1.88;;;13.20;99.90;;;;;;5060109;28;38306;-77
2023/04/28 10:22:51;;;;;;;2.75;1.92;;;13.10;99.90;;;;;;5055656;28;37391;-76
2023/04/28 10:25:31;;;;;;;2.95;1.98;;;13.00;99.90;;;;;;5067095;28;39167;-76
2023/04/28 10:27:59;;;;;;;2.17;1.90;;;13.10;99.90;;;;;;5060289;28;39109;-76
2023/04/28 10:30:30;;;;;;;3.63;1.45;;;13.40;99.90;;;;;;5063307;28;37691;-77
2023/04/28 10:33:14;;;;;;;2.33;1.15;;;13.30;99.90;;;;;;5045686;28;38802;-78
2023/04/28 10:35:43;;;;;;;2.75;1.33;;;13.30;99.90;;;;;;5036582;28;47316;-76
2023/04/28 10:38:20;;;;;;;2.35;1.30;;;13.40;99.90;;;;;;5049334;28;38477;-77
2023/04/28 10:40:51;;;;;;;2.88;1.35;;;13.40;99.90;;;;;;5056343;28;37400;-77
2023/04/28 10:43:30;;;;;;;1.58;1.20;;;13.30;99.90;;;;;;5051021;28;42384;-76
2023/04/28 10:45:59;;;;;;;3.28;1.58;;;13.20;99.90;;;;;;5040440;28;38346;-75
2023/04/28 10:48:25;;;;;;;2.28;1.30;;;13.20;99.90;;;;;;5039739;28;39092;-75
2023/04/28 10:51:04;;;;;;;1.90;1.30;;;13.20;99.90;;;;;;5039805;28;36577;-77
2023/04/28 10:53:45;;;;;;;3.25;1.50;;;13.10;99.90;;;;;;5032405;28;47782;-77
2023/04/28 10:56:11;;;;;;;1.83;1.38;;;13.10;99.90;;;;;;5042093;28;38634;-76
2023/04/28 10:58:42;;;;;;;2.40;1.40;;;13.20;99.90;;;;;;5043593;28;37983;-76
2023/04/28 11:01:20;;;;;;;4.25;1.63;;;13.30;99.90;;;;;;5050578;28;38284;-77
2023/04/28 11:03:47;;;;;;;1.27;1.20;;;13.20;99.90;;;;;;5026961;28;36252;-77
2023/04/28 11:06:24;;;;;;;2.72;1.90;;;13.20;99.90;;;;;;5036798;28;38894;-76
2023/04/28 11:08:50;;;;;;;2.13;1.50;;;13.20;99.90;;;;;;5044261;28;38708;-77
2023/04/28 11:11:19;;;;;;;1.85;1.65;;;13.20;99.90;;;;;;5049660;28;36389;-77
2023/04/28 11:13:48;;;;;;;1.60;1.45;;;13.20;99.90;;;;;;5046152;28;37377;-77
2023/04/28 11:16:16;;;;;;;2.38;2.17;;;13.20;99.90;;;;;;5066790;28;39473;-77
2023/04/28 11:18:58;;;;;;;1.38;0.98;;;13.20;99.90;;;;;;5065169;28;39790;-77
2023/04/28 11:21:27;;;;;;;1.42;1.20;;;13.20;99.90;;;;;;5063827;28;37662;-77
2023/04/28 11:23:53;;;;;;;1.48;1.20;;;13.20;99.90;;;;;;5064708;28;38258;-77
2023/04/28 11:26:19;;;;;;;2.10;1.20;;;13.30;99.90;;;;;;5051720;28;38112;-76
2023/04/28 11:28:56;;;;;;;1.45;1.35;;;13.40;99.90;;;;;;5045293;28;39483;-78
2023/04/28 11:31:24;;;;;;;1.40;1.23;;;13.50;99.90;;;;;;5062184;28;36582;-76
2023/04/28 11:33:59;;;;;;;2.50;1.35;;;13.50;99.90;;;;;;5061260;28;36306;-76
2023/04/28 11:36:31;;;;;;;2.85;1.50;;;13.40;99.90;;;;;;5065232;28;37780;-78
2023/04/28 11:38:58;;;;;;;2.40;1.40;;;13.30;99.90;;;;;;5062837;28;37184;-77
2023/04/28 11:41:25;;;;;;;2.58;1.75;;;13.10;99.90;;;;;;5049477;28;37593;-76
2023/04/28 11:43:52;;;;;;;2.13;1.90;;;13.10;99.90;;;;;;5056565;28;36092;-76
2023/04/28 11:46:23;;;;;;;2.17;1.80;;;13.10;99.90;;;;;;5054628;28;38704;-77
2023/04/28 11:49:01;;;;;;;1.63;1.50;;;13.40;99.90;;;;;;5058732;28;37249;-77
2023/04/28 11:51:37;;;;;;;1.80;1.45;;;13.60;99.90;;;;;;5067468;28;48872;-77
2023/04/28 11:54:10;;;;;;;2.67;1.65;;;13.60;99.90;;;;;;5065389;28;38491;-76
2023/04/28 11:56:44;;;;;;;2.70;1.83;;;13.70;99.90;;;;;;5060467;28;37882;-76
2023/04/28 11:59:12;;;;;;;2.97;1.77;;;13.70;99.90;;;;;;5052419;28;37227;-77
2023/04/28 12:01:46;;;;;;;2.55;1.90;;;13.70;99.90;;;;;;5044705;28;37609;-76
2023/04/28 12:04:13;;;;;;;2.63;2.42;;;13.80;99.90;;;;;;5035866;28;36401;-76
2023/04/28 12:06:40;;;;;;;3.58;2.40;;;13.70;99.90;;;;;;5044211;28;39129;-76
2023/04/28 12:09:24;;;;;;;2.97;2.70;;;13.70;99.90;;;;;;5055268;28;37217;-77
2023/04/28 12:12:01;;;;;;;5.82;3.05;;;13.60;99.90;;;;;;5065286;28;37502;-76
2023/04/28 12:14:27;;;;;;;5.32;2.95;;;13.60;99.90;;;;;;5042932;28;46661;-76
2023/04/28 12:16:53;;;;;;;3.50;2.97;;;13.60;99.90;;;;;;5038508;28;38196;-76
2023/04/28 12:19:20;;;;;;;5.80;3.92;;;13.60;99.90;;;;;;5041243;28;37471;-77
2023/04/28 12:22:03;;;;;;;4.43;3.95;;;13.70;99.90;;;;;;5042426;28;36490;-77
2023/04/28 12:24:30;;;;;;;4.85;3.88;;;13.70;99.90;;;;;;5053429;28;45994;-77
2023/04/28 12:27:19;;;;;;;5.07;3.45;;;13.60;99.90;;;;;;5055204;28;38964;-77
2023/04/28 12:29:45;;;;;;;4.72;2.90;;;13.70;99.90;;;;;;5051196;28;48526;-77
2023/04/28 12:32:12;;;;;;;5.78;3.00;;;13.60;99.90;;;;;;5038568;28;36724;-77
2023/04/28 12:34:40;;;;;;;7.65;3.80;;;13.60;99.90;;;;;;5060004;28;36681;-77
2023/04/28 12:37:06;;;;;;;6.75;3.13;;;13.50;99.90;;;;;;5056556;28;37847;-76
2023/04/28 12:39:33;;;;;;;7.00;3.00;;;13.60;99.90;;;;;;5050152;28;39166;-76
2023/04/28 12:42:01;;;;;;;6.63;2.92;;;13.60;99.90;;;;;;5064724;28;38290;-76
2023/04/28 12:44:34;;;;;;;4.30;3.42;;;13.70;99.90;;;;;;5046530;28;47807;-76
2023/04/28 12:47:04;;;;;;;;;;;13.60;99.90;;;;;;5044746;28;38844;-77
2023/04/28 12:49:30;;;;;;;8.60;4.03;;;13.60;99.90;;;;;;5040766;28;47265;-76
2023/04/28 12:51:56;;;;;;;7.03;4.78;;;13.60;99.90;;;;;;5043854;28;37675;-77
2023/04/28 12:54:23;;;;;;;6.97;5.03;;;13.50;99.90;;;;;;5043466;28;36448;-76
2023/04/28 12:56:49;;;;;;;8.73;6.03;;;13.60;99.90;;;;;;5060694;28;38448;-76
2023/04/28 12:59:15;;;;;;;8.48;6.15;;;13.60;99.90;;;;;;5063674;28;38124;-76
2023/04/28 13:01:42;;;;;;;12.30;7.35;;;13.60;99.90;;;;;;5062959;28;37155;-76